sensor_id;sensor_type;location;lat;lon;timestamp;P1;durP1;ratioP1;P2;durP2;ratioP2
5585;SDS011;2815;54.094;12.112;2023-12-20T00:01:48;2.95;;;1.25;;
5585;SDS011;2815;54.094;12.112;2023-12-20T00:04:16;4.30;;;1.52;;
5585;SDS011;2815;54.094;12.112;2023-12-20T00:06:44;5.97;;;1.35;;
5585;SDS011;2815;54.094;12.112;2023-12-20T00:09:14;2.83;;;1.30;;
5585;SDS011;2815;54.094;12.112;2023-12-20T00:11:43;6.57;;;1.42;;
5585;SDS011;2815;54.094;12.112;2023-12-20T00:14:11;6.75;;;1.15;;
5585;SDS011;2815;54.094;12.112;2023-12-20T00:16:39;6.18;;;1.42;;
5585;SDS011;2815;54.094;12.112;2023-12-20T00:19:07;5.47;;;1.42;;
5585;SDS011;2815;54.094;12.112;2023-12-20T00:21:35;8.07;;;2.03;;
5585;SDS011;2815;54.094;12.112;2023-12-20T00:24:04;5.32;;;1.63;;
5585;SDS011;2815;54.094;12.112;2023-12-20T00:26:34;6.40;;;1.60;;
5585;SDS011;2815;54.094;12.112;2023-12-20T00:29:02;7.05;;;1.30;;
5585;SDS011;2815;54.094;12.112;2023-12-20T00:31:30;4.18;;;1.58;;
5585;SDS011;2815;54.094;12.112;2023-12-20T00:33:58;2.58;;;1.05;;
5585;SDS011;2815;54.094;12.112;2023-12-20T00:36:26;6.57;;;1.33;;
5585;SDS011;2815;54.094;12.112;2023-12-20T00:38:54;2.25;;;1.00;;
5585;SDS011;2815;54.094;12.112;2023-12-20T00:41:22;8.00;;;1.10;;
5585;SDS011;2815;54.094;12.112;2023-12-20T00:43:52;5.47;;;1.30;;
5585;SDS011;2815;54.094;12.112;2023-12-20T00:46:20;4.88;;;1.10;;
5585;SDS011;2815;54.094;12.112;2023-12-20T00:48:48;7.03;;;1.30;;
5585;SDS011;2815;54.094;12.112;2023-12-20T00:51:16;5.72;;;1.35;;
5585;SDS011;2815;54.094;12.112;2023-12-20T00:53:44;2.53;;;0.93;;
5585;SDS011;2815;54.094;12.112;2023-12-20T00:56:16;5.50;;;1.40;;
5585;SDS011;2815;54.094;12.112;2023-12-20T00:58:44;2.70;;;1.00;;
5585;SDS011;2815;54.094;12.112;2023-12-20T01:01:13;7.20;;;1.55;;
5585;SDS011;2815;54.094;12.112;2023-12-20T01:03:41;2.70;;;1.10;;
5585;SDS011;2815;54.094;12.112;2023-12-20T01:06:09;2.17;;;0.77;;
5585;SDS011;2815;54.094;12.112;2023-12-20T01:08:38;6.82;;;1.10;;
5585;SDS011;2815;54.094;12.112;2023-12-20T01:11:06;6.47;;;1.40;;
5585;SDS011;2815;54.094;12.112;2023-12-20T01:13:34;6.15;;;1.25;;
5585;SDS011;2815;54.094;12.112;2023-12-20T01:16:03;6.93;;;1.20;;
5585;SDS011;2815;54.094;12.112;2023-12-20T01:18:33;9.32;;;1.20;;
5585;SDS011;2815;54.094;12.112;2023-12-20T01:21:02;3.20;;;0.98;;
5585;SDS011;2815;54.094;12.112;2023-12-20T01:23:30;6.00;;;1.65;;
5585;SDS011;2815;54.094;12.112;2023-12-20T01:25:58;3.88;;;1.10;;
5585;SDS011;2815;54.094;12.112;2023-12-20T01:28:27;3.53;;;0.90;;
5585;SDS011;2815;54.094;12.112;2023-12-20T01:30:55;9.15;;;1.30;;
5585;SDS011;2815;54.094;12.112;2023-12-20T01:33:23;5.03;;;0.98;;
5585;SDS011;2815;54.094;12.112;2023-12-20T01:35:54;2.35;;;0.80;;
5585;SDS011;2815;54.094;12.112;2023-12-20T01:38:22;3.78;;;1.15;;
5585;SDS011;2815;54.094;12.112;2023-12-20T01:40:50;11.80;;;2.08;;
5585;SDS011;2815;54.094;12.112;2023-12-20T01:43:18;6.07;;;0.80;;
5585;SDS011;2815;54.094;12.112;2023-12-20T01:45:46;3.72;;;0.85;;
5585;SDS011;2815;54.094;12.112;2023-12-20T01:48:15;9.35;;;0.98;;
5585;SDS011;2815;54.094;12.112;2023-12-20T01:50:44;14.10;;;1.10;;
5585;SDS011;2815;54.094;12.112;2023-12-20T01:53:14;5.47;;;0.93;;
5585;SDS011;2815;54.094;12.112;2023-12-20T01:55:43;3.78;;;1.27;;
5585;SDS011;2815;54.094;12.112;2023-12-20T01:58:11;5.80;;;1.00;;
5585;SDS011;2815;54.094;12.112;2023-12-20T02:00:44;7.40;;;1.33;;
5585;SDS011;2815;54.094;12.112;2023-12-20T02:03:13;9.70;;;1.40;;
5585;SDS011;2815;54.094;12.112;2023-12-20T02:05:44;6.82;;;1.20;;
5585;SDS011;2815;54.094;12.112;2023-12-20T02:08:15;3.70;;;0.85;;
5585;SDS011;2815;54.094;12.112;2023-12-20T02:10:43;2.97;;;0.90;;
5585;SDS011;2815;54.094;12.112;2023-12-20T02:13:11;8.02;;;0.98;;
5585;SDS011;2815;54.094;12.112;2023-12-20T02:15:39;6.07;;;1.17;;
5585;SDS011;2815;54.094;12.112;2023-12-20T02:18:10;10.55;;;1.55;;
5585;SDS011;2815;54.094;12.112;2023-12-20T02:20:41;4.53;;;1.02;;
5585;SDS011;2815;54.094;12.112;2023-12-20T02:23:11;5.15;;;1.17;;
5585;SDS011;2815;54.094;12.112;2023-12-20T02:25:39;5.93;;;1.63;;
5585;SDS011;2815;54.094;12.112;2023-12-20T02:28:07;5.88;;;1.23;;
5585;SDS011;2815;54.094;12.112;2023-12-20T02:30:35;5.32;;;1.30;;
5585;SDS011;2815;54.094;12.112;2023-12-20T02:33:03;12.52;;;1.70;;
5585;SDS011;2815;54.094;12.112;2023-12-20T02:35:34;8.80;;;1.70;;
5585;SDS011;2815;54.094;12.112;2023-12-20T02:38:02;10.68;;;2.00;;
5585;SDS011;2815;54.094;12.112;2023-12-20T02:40:32;6.68;;;1.45;;
5585;SDS011;2815;54.094;12.112;2023-12-20T02:43:00;8.02;;;2.38;;
5585;SDS011;2815;54.094;12.112;2023-12-20T02:45:28;10.20;;;1.63;;
5585;SDS011;2815;54.094;12.112;2023-12-20T02:47:56;11.80;;;2.17;;
5585;SDS011;2815;54.094;12.112;2023-12-20T02:50:24;9.20;;;1.70;;
5585;SDS011;2815;54.094;12.112;2023-12-20T02:52:52;11.98;;;2.10;;
5585;SDS011;2815;54.094;12.112;2023-12-20T02:55:20;8.23;;;1.50;;
5585;SDS011;2815;54.094;12.112;2023-12-20T02:57:50;10.15;;;1.60;;
5585;SDS011;2815;54.094;12.112;2023-12-20T03:00:18;15.73;;;1.70;;
5585;SDS011;2815;54.094;12.112;2023-12-20T03:02:47;8.05;;;2.40;;
5585;SDS011;2815;54.094;12.112;2023-12-20T03:05:15;13.35;;;1.83;;
5585;SDS011;2815;54.094;12.112;2023-12-20T03:07:44;7.80;;;1.48;;
5585;SDS011;2815;54.094;12.112;2023-12-20T03:10:12;10.15;;;1.75;;
5585;SDS011;2815;54.094;12.112;2023-12-20T03:12:53;11.65;;;1.80;;
5585;SDS011;2815;54.094;12.112;2023-12-20T03:15:21;7.85;;;1.40;;
5585;SDS011;2815;54.094;12.112;2023-12-20T03:17:49;12.52;;;1.65;;
5585;SDS011;2815;54.094;12.112;2023-12-20T03:20:17;6.82;;;1.33;;
5585;SDS011;2815;54.094;12.112;2023-12-20T03:22:45;10.55;;;2.00;;
5585;SDS011;2815;54.094;12.112;2023-12-20T03:25:13;9.45;;;1.98;;
5585;SDS011;2815;54.094;12.112;2023-12-20T03:27:41;18.02;;;2.85;;
5585;SDS011;2815;54.094;12.112;2023-12-20T03:30:12;9.52;;;1.73;;
5585;SDS011;2815;54.094;12.112;2023-12-20T03:32:40;10.35;;;1.35;;
5585;SDS011;2815;54.094;12.112;2023-12-20T03:35:09;8.27;;;1.70;;
5585;SDS011;2815;54.094;12.112;2023-12-20T03:37:37;8.25;;;1.77;;
5585;SDS011;2815;54.094;12.112;2023-12-20T03:40:05;12.82;;;1.85;;
5585;SDS011;2815;54.094;12.112;2023-12-20T03:42:34;14.98;;;1.60;;
5585;SDS011;2815;54.094;12.112;2023-12-20T03:45:02;9.55;;;1.30;;
5585;SDS011;2815;54.094;12.112;2023-12-20T03:47:31;12.80;;;1.67;;
5585;SDS011;2815;54.094;12.112;2023-12-20T03:50:00;11.88;;;1.40;;
5585;SDS011;2815;54.094;12.112;2023-12-20T03:52:28;12.70;;;1.50;;
5585;SDS011;2815;54.094;12.112;2023-12-20T03:54:56;7.40;;;1.20;;
5585;SDS011;2815;54.094;12.112;2023-12-20T03:57:25;12.32;;;1.60;;
5585;SDS011;2815;54.094;12.112;2023-12-20T03:59:53;6.57;;;1.00;;
5585;SDS011;2815;54.094;12.112;2023-12-20T04:02:21;7.50;;;1.50;;
5585;SDS011;2815;54.094;12.112;2023-12-20T04:04:50;7.07;;;1.63;;
5585;SDS011;2815;54.094;12.112;2023-12-20T04:07:19;15.90;;;1.55;;
5585;SDS011;2815;54.094;12.112;2023-12-20T04:09:48;5.10;;;1.60;;
5585;SDS011;2815;54.094;12.112;2023-12-20T04:12:17;13.00;;;1.60;;
5585;SDS011;2815;54.094;12.112;2023-12-20T04:14:45;6.43;;;1.35;;
5585;SDS011;2815;54.094;12.112;2023-12-20T04:17:13;10.60;;;1.55;;
5585;SDS011;2815;54.094;12.112;2023-12-20T04:19:42;9.18;;;1.55;;
5585;SDS011;2815;54.094;12.112;2023-12-20T04:22:12;5.85;;;1.75;;
5585;SDS011;2815;54.094;12.112;2023-12-20T04:24:40;5.80;;;1.40;;
5585;SDS011;2815;54.094;12.112;2023-12-20T04:27:08;7.82;;;1.65;;
5585;SDS011;2815;54.094;12.112;2023-12-20T04:29:36;4.30;;;1.50;;
5585;SDS011;2815;54.094;12.112;2023-12-20T04:32:05;11.45;;;1.58;;
5585;SDS011;2815;54.094;12.112;2023-12-20T04:34:33;9.45;;;1.83;;
5585;SDS011;2815;54.094;12.112;2023-12-20T04:37:01;6.15;;;1.65;;
5585;SDS011;2815;54.094;12.112;2023-12-20T04:39:30;10.43;;;2.13;;
5585;SDS011;2815;54.094;12.112;2023-12-20T04:41:59;5.05;;;1.52;;
5585;SDS011;2815;54.094;12.112;2023-12-20T04:44:27;8.18;;;1.90;;
5585;SDS011;2815;54.094;12.112;2023-12-20T04:46:56;13.82;;;2.10;;
5585;SDS011;2815;54.094;12.112;2023-12-20T04:49:24;5.90;;;2.22;;
5585;SDS011;2815;54.094;12.112;2023-12-20T04:51:52;17.33;;;2.67;;
5585;SDS011;2815;54.094;12.112;2023-12-20T04:54:20;9.45;;;2.30;;
5585;SDS011;2815;54.094;12.112;2023-12-20T04:56:49;7.50;;;2.15;;
5585;SDS011;2815;54.094;12.112;2023-12-20T04:59:17;8.27;;;2.10;;
5585;SDS011;2815;54.094;12.112;2023-12-20T05:01:46;7.90;;;2.47;;
5585;SDS011;2815;54.094;12.112;2023-12-20T05:04:14;8.63;;;2.20;;
5585;SDS011;2815;54.094;12.112;2023-12-20T05:06:42;7.20;;;2.00;;
5585;SDS011;2815;54.094;12.112;2023-12-20T05:09:10;13.00;;;2.65;;
5585;SDS011;2815;54.094;12.112;2023-12-20T05:11:40;9.77;;;2.63;;
5585;SDS011;2815;54.094;12.112;2023-12-20T05:14:10;3.50;;;1.60;;
5585;SDS011;2815;54.094;12.112;2023-12-20T05:16:38;8.50;;;2.20;;
5585;SDS011;2815;54.094;12.112;2023-12-20T05:19:06;13.45;;;2.30;;
5585;SDS011;2815;54.094;12.112;2023-12-20T05:21:34;12.02;;;2.20;;
5585;SDS011;2815;54.094;12.112;2023-12-20T05:24:03;13.90;;;2.30;;
5585;SDS011;2815;54.094;12.112;2023-12-20T05:26:31;19.10;;;3.00;;
5585;SDS011;2815;54.094;12.112;2023-12-20T05:28:59;13.95;;;2.45;;
5585;SDS011;2815;54.094;12.112;2023-12-20T05:31:29;8.15;;;2.30;;
5585;SDS011;2815;54.094;12.112;2023-12-20T05:33:57;10.05;;;2.60;;
5585;SDS011;2815;54.094;12.112;2023-12-20T05:36:26;7.90;;;2.17;;
5585;SDS011;2815;54.094;12.112;2023-12-20T05:38:57;6.60;;;1.77;;
5585;SDS011;2815;54.094;12.112;2023-12-20T05:41:25;8.88;;;2.00;;
5585;SDS011;2815;54.094;12.112;2023-12-20T05:43:53;7.63;;;1.83;;
5585;SDS011;2815;54.094;12.112;2023-12-20T05:46:21;11.10;;;2.42;;
5585;SDS011;2815;54.094;12.112;2023-12-20T05:48:51;4.70;;;1.70;;
5585;SDS011;2815;54.094;12.112;2023-12-20T05:51:19;4.22;;;1.80;;
5585;SDS011;2815;54.094;12.112;2023-12-20T05:53:47;3.85;;;1.70;;
5585;SDS011;2815;54.094;12.112;2023-12-20T05:56:16;9.77;;;2.28;;
5585;SDS011;2815;54.094;12.112;2023-12-20T05:58:44;8.00;;;2.00;;
5585;SDS011;2815;54.094;12.112;2023-12-20T06:01:14;8.90;;;2.22;;
5585;SDS011;2815;54.094;12.112;2023-12-20T06:03:43;5.57;;;1.85;;
5585;SDS011;2815;54.094;12.112;2023-12-20T06:06:14;6.72;;;1.83;;
5585;SDS011;2815;54.094;12.112;2023-12-20T06:08:43;7.55;;;1.85;;
5585;SDS011;2815;54.094;12.112;2023-12-20T06:11:11;9.73;;;2.00;;
5585;SDS011;2815;54.094;12.112;2023-12-20T06:13:40;5.13;;;1.70;;
5585;SDS011;2815;54.094;12.112;2023-12-20T06:16:08;9.85;;;2.00;;
5585;SDS011;2815;54.094;12.112;2023-12-20T06:18:37;5.35;;;1.50;;
5585;SDS011;2815;54.094;12.112;2023-12-20T06:21:05;9.88;;;1.90;;
5585;SDS011;2815;54.094;12.112;2023-12-20T06:23:36;8.90;;;1.80;;
5585;SDS011;2815;54.094;12.112;2023-12-20T06:26:04;9.32;;;1.60;;
5585;SDS011;2815;54.094;12.112;2023-12-20T06:28:32;3.75;;;1.55;;
5585;SDS011;2815;54.094;12.112;2023-12-20T06:31:00;6.03;;;1.50;;
5585;SDS011;2815;54.094;12.112;2023-12-20T06:33:29;5.18;;;1.80;;
5585;SDS011;2815;54.094;12.112;2023-12-20T06:35:58;2.63;;;1.40;;
5585;SDS011;2815;54.094;12.112;2023-12-20T06:38:26;4.47;;;1.48;;
5585;SDS011;2815;54.094;12.112;2023-12-20T06:40:56;5.60;;;1.83;;
5585;SDS011;2815;54.094;12.112;2023-12-20T06:43:25;6.97;;;2.13;;
5585;SDS011;2815;54.094;12.112;2023-12-20T06:46:12;12.38;;;2.15;;
5585;SDS011;2815;54.094;12.112;2023-12-20T06:48:40;12.85;;;1.60;;
5585;SDS011;2815;54.094;12.112;2023-12-20T06:51:12;8.23;;;2.03;;
5585;SDS011;2815;54.094;12.112;2023-12-20T06:53:42;3.70;;;1.55;;
5585;SDS011;2815;54.094;12.112;2023-12-20T06:56:11;6.88;;;1.55;;
5585;SDS011;2815;54.094;12.112;2023-12-20T06:58:44;4.13;;;1.20;;
5585;SDS011;2815;54.094;12.112;2023-12-20T07:01:12;5.88;;;1.55;;
5585;SDS011;2815;54.094;12.112;2023-12-20T07:03:40;2.50;;;1.00;;
5585;SDS011;2815;54.094;12.112;2023-12-20T07:06:09;8.07;;;1.98;;
5585;SDS011;2815;54.094;12.112;2023-12-20T07:08:37;4.55;;;1.05;;
5585;SDS011;2815;54.094;12.112;2023-12-20T07:11:05;6.57;;;1.10;;
5585;SDS011;2815;54.094;12.112;2023-12-20T07:13:34;5.05;;;1.20;;
5585;SDS011;2815;54.094;12.112;2023-12-20T07:16:02;5.68;;;1.30;;
5585;SDS011;2815;54.094;12.112;2023-12-20T07:18:31;10.32;;;1.70;;
5585;SDS011;2815;54.094;12.112;2023-12-20T07:20:59;3.95;;;1.45;;
5585;SDS011;2815;54.094;12.112;2023-12-20T07:23:27;11.02;;;1.67;;
5585;SDS011;2815;54.094;12.112;2023-12-20T07:25:55;5.47;;;2.03;;
5585;SDS011;2815;54.094;12.112;2023-12-20T07:28:23;10.55;;;2.70;;
5585;SDS011;2815;54.094;12.112;2023-12-20T07:30:53;4.82;;;1.88;;
5585;SDS011;2815;54.094;12.112;2023-12-20T07:33:21;4.55;;;2.00;;
5585;SDS011;2815;54.094;12.112;2023-12-20T07:35:50;10.52;;;2.20;;
5585;SDS011;2815;54.094;12.112;2023-12-20T07:38:19;8.93;;;2.05;;
5585;SDS011;2815;54.094;12.112;2023-12-20T07:40:47;9.25;;;2.15;;
5585;SDS011;2815;54.094;12.112;2023-12-20T07:43:15;6.10;;;1.65;;
5585;SDS011;2815;54.094;12.112;2023-12-20T07:45:43;9.45;;;2.00;;
5585;SDS011;2815;54.094;12.112;2023-12-20T07:48:13;10.30;;;2.00;;
5585;SDS011;2815;54.094;12.112;2023-12-20T07:50:41;8.10;;;1.73;;
5585;SDS011;2815;54.094;12.112;2023-12-20T07:53:09;10.63;;;2.00;;
5585;SDS011;2815;54.094;12.112;2023-12-20T07:55:38;4.15;;;1.70;;
5585;SDS011;2815;54.094;12.112;2023-12-20T07:58:07;9.82;;;1.80;;
5585;SDS011;2815;54.094;12.112;2023-12-20T08:00:35;7.80;;;1.52;;
5585;SDS011;2815;54.094;12.112;2023-12-20T08:03:03;9.48;;;3.30;;
5585;SDS011;2815;54.094;12.112;2023-12-20T08:05:32;10.38;;;1.98;;
5585;SDS011;2815;54.094;12.112;2023-12-20T08:08:00;5.47;;;1.40;;
5585;SDS011;2815;54.094;12.112;2023-12-20T08:10:29;8.82;;;1.90;;
5585;SDS011;2815;54.094;12.112;2023-12-20T08:12:57;7.65;;;1.35;;
5585;SDS011;2815;54.094;12.112;2023-12-20T08:15:25;6.10;;;1.13;;
5585;SDS011;2815;54.094;12.112;2023-12-20T08:17:53;3.95;;;1.27;;
5585;SDS011;2815;54.094;12.112;2023-12-20T08:20:21;3.97;;;1.65;;
5585;SDS011;2815;54.094;12.112;2023-12-20T08:23:06;3.10;;;0.93;;
5585;SDS011;2815;54.094;12.112;2023-12-20T08:25:34;4.30;;;1.13;;
5585;SDS011;2815;54.094;12.112;2023-12-20T08:28:03;2.90;;;1.20;;
5585;SDS011;2815;54.094;12.112;2023-12-20T08:30:32;8.77;;;1.63;;
5585;SDS011;2815;54.094;12.112;2023-12-20T08:33:00;5.70;;;1.27;;
5585;SDS011;2815;54.094;12.112;2023-12-20T08:35:29;6.90;;;1.40;;
5585;SDS011;2815;54.094;12.112;2023-12-20T08:37:57;5.00;;;1.20;;
5585;SDS011;2815;54.094;12.112;2023-12-20T08:40:28;6.07;;;1.80;;
5585;SDS011;2815;54.094;12.112;2023-12-20T08:42:56;9.05;;;1.80;;
5585;SDS011;2815;54.094;12.112;2023-12-20T08:45:24;10.30;;;1.52;;
5585;SDS011;2815;54.094;12.112;2023-12-20T08:47:52;8.73;;;1.30;;
5585;SDS011;2815;54.094;12.112;2023-12-20T08:50:22;7.40;;;1.23;;
5585;SDS011;2815;54.094;12.112;2023-12-20T08:52:52;5.50;;;1.23;;
5585;SDS011;2815;54.094;12.112;2023-12-20T08:55:20;2.85;;;1.73;;
5585;SDS011;2815;54.094;12.112;2023-12-20T08:57:49;1.63;;;0.90;;
5585;SDS011;2815;54.094;12.112;2023-12-20T09:00:18;4.65;;;1.20;;
5585;SDS011;2815;54.094;12.112;2023-12-20T09:02:47;4.75;;;1.30;;
5585;SDS011;2815;54.094;12.112;2023-12-20T09:05:15;5.72;;;1.20;;
5585;SDS011;2815;54.094;12.112;2023-12-20T09:07:43;5.80;;;1.30;;
5585;SDS011;2815;54.094;12.112;2023-12-20T09:10:12;2.10;;;0.80;;
5585;SDS011;2815;54.094;12.112;2023-12-20T09:12:43;3.92;;;1.23;;
5585;SDS011;2815;54.094;12.112;2023-12-20T09:15:15;4.00;;;0.82;;
5585;SDS011;2815;54.094;12.112;2023-12-20T09:17:43;5.78;;;1.48;;
5585;SDS011;2815;54.094;12.112;2023-12-20T09:20:11;3.50;;;1.00;;
5585;SDS011;2815;54.094;12.112;2023-12-20T09:22:40;4.57;;;1.23;;
5585;SDS011;2815;54.094;12.112;2023-12-20T09:25:10;5.50;;;1.98;;
5585;SDS011;2815;54.094;12.112;2023-12-20T09:27:39;8.88;;;1.23;;
5585;SDS011;2815;54.094;12.112;2023-12-20T09:30:08;7.90;;;1.83;;
5585;SDS011;2815;54.094;12.112;2023-12-20T09:32:39;8.18;;;2.25;;
5585;SDS011;2815;54.094;12.112;2023-12-20T09:35:13;9.43;;;1.77;;
5585;SDS011;2815;54.094;12.112;2023-12-20T09:37:42;5.88;;;1.50;;
5585;SDS011;2815;54.094;12.112;2023-12-20T09:40:12;8.25;;;1.25;;
5585;SDS011;2815;54.094;12.112;2023-12-20T09:42:44;13.90;;;1.92;;
5585;SDS011;2815;54.094;12.112;2023-12-20T09:45:17;3.92;;;1.50;;
5585;SDS011;2815;54.094;12.112;2023-12-20T09:47:50;8.82;;;1.40;;
5585;SDS011;2815;54.094;12.112;2023-12-20T09:50:21;7.45;;;1.50;;
5585;SDS011;2815;54.094;12.112;2023-12-20T09:52:50;3.97;;;1.08;;
5585;SDS011;2815;54.094;12.112;2023-12-20T09:55:19;2.20;;;1.20;;
5585;SDS011;2815;54.094;12.112;2023-12-20T09:57:48;2.15;;;1.15;;
5585;SDS011;2815;54.094;12.112;2023-12-20T10:00:17;5.07;;;1.23;;
5585;SDS011;2815;54.094;12.112;2023-12-20T10:02:48;3.33;;;1.30;;
5585;SDS011;2815;54.094;12.112;2023-12-20T10:05:22;9.73;;;1.40;;
5585;SDS011;2815;54.094;12.112;2023-12-20T10:07:54;4.47;;;1.40;;
5585;SDS011;2815;54.094;12.112;2023-12-20T10:10:23;4.20;;;1.30;;
5585;SDS011;2815;54.094;12.112;2023-12-20T10:13:08;3.17;;;1.40;;
5585;SDS011;2815;54.094;12.112;2023-12-20T10:15:38;8.05;;;1.50;;
5585;SDS011;2815;54.094;12.112;2023-12-20T10:18:12;4.65;;;1.50;;
5585;SDS011;2815;54.094;12.112;2023-12-20T10:20:40;8.80;;;1.75;;
5585;SDS011;2815;54.094;12.112;2023-12-20T10:23:10;5.97;;;1.80;;
5585;SDS011;2815;54.094;12.112;2023-12-20T10:25:39;6.03;;;1.60;;
5585;SDS011;2815;54.094;12.112;2023-12-20T10:28:09;3.22;;;1.50;;
5585;SDS011;2815;54.094;12.112;2023-12-20T10:30:39;11.90;;;2.53;;
5585;SDS011;2815;54.094;12.112;2023-12-20T10:33:11;4.43;;;1.52;;
5585;SDS011;2815;54.094;12.112;2023-12-20T10:35:40;7.65;;;1.88;;
5585;SDS011;2815;54.094;12.112;2023-12-20T10:38:12;4.60;;;1.67;;
5585;SDS011;2815;54.094;12.112;2023-12-20T10:40:42;3.97;;;1.55;;
5585;SDS011;2815;54.094;12.112;2023-12-20T10:43:10;5.97;;;1.85;;
5585;SDS011;2815;54.094;12.112;2023-12-20T10:45:40;3.70;;;1.48;;
5585;SDS011;2815;54.094;12.112;2023-12-20T10:48:09;2.03;;;1.40;;
5585;SDS011;2815;54.094;12.112;2023-12-20T10:50:39;2.60;;;1.15;;
5585;SDS011;2815;54.094;12.112;2023-12-20T10:53:09;4.63;;;1.15;;
5585;SDS011;2815;54.094;12.112;2023-12-20T10:55:40;1.77;;;0.90;;
5585;SDS011;2815;54.094;12.112;2023-12-20T10:58:08;2.65;;;0.90;;
5585;SDS011;2815;54.094;12.112;2023-12-20T11:00:38;0.60;;;0.60;;
5585;SDS011;2815;54.094;12.112;2023-12-20T11:03:08;2.38;;;1.00;;
5585;SDS011;2815;54.094;12.112;2023-12-20T11:05:40;2.15;;;0.88;;
5585;SDS011;2815;54.094;12.112;2023-12-20T11:08:16;2.65;;;1.00;;
5585;SDS011;2815;54.094;12.112;2023-12-20T11:10:51;7.85;;;1.33;;
5585;SDS011;2815;54.094;12.112;2023-12-20T11:13:26;5.32;;;1.23;;
5585;SDS011;2815;54.094;12.112;2023-12-20T11:15:58;7.32;;;1.10;;
5585;SDS011;2815;54.094;12.112;2023-12-20T11:18:28;6.40;;;1.20;;
5585;SDS011;2815;54.094;12.112;2023-12-20T11:21:01;4.70;;;1.10;;
5585;SDS011;2815;54.094;12.112;2023-12-20T11:23:31;4.22;;;1.02;;
5585;SDS011;2815;54.094;12.112;2023-12-20T11:26:01;1.42;;;0.70;;
5585;SDS011;2815;54.094;12.112;2023-12-20T11:28:30;3.40;;;0.98;;
5585;SDS011;2815;54.094;12.112;2023-12-20T11:30:58;4.90;;;0.93;;
5585;SDS011;2815;54.094;12.112;2023-12-20T11:33:29;3.22;;;1.15;;
5585;SDS011;2815;54.094;12.112;2023-12-20T11:35:58;2.95;;;0.50;;
5585;SDS011;2815;54.094;12.112;2023-12-20T11:38:28;2.55;;;1.02;;
5585;SDS011;2815;54.094;12.112;2023-12-20T11:41:05;4.53;;;0.98;;
5585;SDS011;2815;54.094;12.112;2023-12-20T11:43:36;3.97;;;0.90;;
5585;SDS011;2815;54.094;12.112;2023-12-20T11:46:04;6.07;;;1.20;;
5585;SDS011;2815;54.094;12.112;2023-12-20T11:48:34;0.70;;;0.50;;
5585;SDS011;2815;54.094;12.112;2023-12-20T11:51:02;1.48;;;1.10;;
5585;SDS011;2815;54.094;12.112;2023-12-20T11:53:38;2.65;;;0.82;;
5585;SDS011;2815;54.094;12.112;2023-12-20T11:56:06;3.08;;;0.95;;
5585;SDS011;2815;54.094;12.112;2023-12-20T11:58:34;4.20;;;0.80;;
5585;SDS011;2815;54.094;12.112;2023-12-20T12:01:04;2.75;;;0.75;;
5585;SDS011;2815;54.094;12.112;2023-12-20T12:03:35;3.22;;;0.70;;
5585;SDS011;2815;54.094;12.112;2023-12-20T12:06:03;0.77;;;0.60;;
5585;SDS011;2815;54.094;12.112;2023-12-20T12:08:32;2.85;;;0.70;;
5585;SDS011;2815;54.094;12.112;2023-12-20T12:11:01;6.50;;;1.13;;
5585;SDS011;2815;54.094;12.112;2023-12-20T12:13:30;2.60;;;0.77;;
5585;SDS011;2815;54.094;12.112;2023-12-20T12:15:58;5.45;;;1.02;;
5585;SDS011;2815;54.094;12.112;2023-12-20T12:18:26;4.03;;;0.63;;
5585;SDS011;2815;54.094;12.112;2023-12-20T12:20:59;2.85;;;0.73;;
5585;SDS011;2815;54.094;12.112;2023-12-20T12:23:28;6.55;;;1.10;;
5585;SDS011;2815;54.094;12.112;2023-12-20T12:25:56;4.25;;;0.80;;
5585;SDS011;2815;54.094;12.112;2023-12-20T12:28:27;3.20;;;0.98;;
5585;SDS011;2815;54.094;12.112;2023-12-20T12:30:56;3.40;;;0.82;;
5585;SDS011;2815;54.094;12.112;2023-12-20T12:33:25;3.60;;;1.00;;
5585;SDS011;2815;54.094;12.112;2023-12-20T12:35:54;7.25;;;0.93;;
5585;SDS011;2815;54.094;12.112;2023-12-20T12:38:22;3.50;;;0.70;;
5585;SDS011;2815;54.094;12.112;2023-12-20T12:40:52;8.07;;;1.17;;
5585;SDS011;2815;54.094;12.112;2023-12-20T12:43:20;6.95;;;0.88;;
5585;SDS011;2815;54.094;12.112;2023-12-20T12:45:51;4.40;;;1.00;;
5585;SDS011;2815;54.094;12.112;2023-12-20T12:48:19;4.43;;;1.00;;
5585;SDS011;2815;54.094;12.112;2023-12-20T12:50:49;5.65;;;1.55;;
5585;SDS011;2815;54.094;12.112;2023-12-20T12:53:18;1.77;;;0.90;;
5585;SDS011;2815;54.094;12.112;2023-12-20T12:55:46;2.10;;;0.68;;
5585;SDS011;2815;54.094;12.112;2023-12-20T12:58:15;1.95;;;1.00;;
5585;SDS011;2815;54.094;12.112;2023-12-20T13:00:43;6.22;;;1.27;;
5585;SDS011;2815;54.094;12.112;2023-12-20T13:03:14;5.30;;;1.02;;
5585;SDS011;2815;54.094;12.112;2023-12-20T13:05:42;10.55;;;1.45;;
5585;SDS011;2815;54.094;12.112;2023-12-20T13:08:12;16.75;;;1.20;;
5585;SDS011;2815;54.094;12.112;2023-12-20T13:10:41;9.52;;;1.38;;
5585;SDS011;2815;54.094;12.112;2023-12-20T13:13:09;5.95;;;1.08;;
5585;SDS011;2815;54.094;12.112;2023-12-20T13:15:38;8.63;;;1.10;;
5585;SDS011;2815;54.094;12.112;2023-12-20T13:18:07;5.88;;;1.10;;
5585;SDS011;2815;54.094;12.112;2023-12-20T13:20:36;5.78;;;1.40;;
5585;SDS011;2815;54.094;12.112;2023-12-20T13:23:06;6.80;;;1.40;;
5585;SDS011;2815;54.094;12.112;2023-12-20T13:25:34;16.05;;;1.33;;
5585;SDS011;2815;54.094;12.112;2023-12-20T13:28:02;8.50;;;1.17;;
5585;SDS011;2815;54.094;12.112;2023-12-20T13:30:31;4.47;;;1.08;;
5585;SDS011;2815;54.094;12.112;2023-12-20T13:32:59;5.15;;;1.20;;
5585;SDS011;2815;54.094;12.112;2023-12-20T13:35:27;1.60;;;0.95;;
5585;SDS011;2815;54.094;12.112;2023-12-20T13:37:57;4.90;;;1.42;;
5585;SDS011;2815;54.094;12.112;2023-12-20T13:40:26;12.70;;;1.83;;
5585;SDS011;2815;54.094;12.112;2023-12-20T13:42:55;8.63;;;1.27;;
5585;SDS011;2815;54.094;12.112;2023-12-20T13:45:23;5.60;;;1.20;;
5585;SDS011;2815;54.094;12.112;2023-12-20T13:47:52;17.00;;;1.55;;
5585;SDS011;2815;54.094;12.112;2023-12-20T13:50:20;11.15;;;1.58;;
5585;SDS011;2815;54.094;12.112;2023-12-20T13:52:49;9.02;;;1.52;;
5585;SDS011;2815;54.094;12.112;2023-12-20T13:55:18;7.35;;;1.60;;
5585;SDS011;2815;54.094;12.112;2023-12-20T13:57:48;9.60;;;1.52;;
5585;SDS011;2815;54.094;12.112;2023-12-20T14:02:49;5.57;;;1.50;;
5585;SDS011;2815;54.094;12.112;2023-12-20T14:05:17;11.10;;;2.10;;
5585;SDS011;2815;54.094;12.112;2023-12-20T14:07:47;9.10;;;1.40;;
5585;SDS011;2815;54.094;12.112;2023-12-20T14:10:15;10.20;;;1.60;;
5585;SDS011;2815;54.094;12.112;2023-12-20T14:12:45;5.57;;;1.95;;
5585;SDS011;2815;54.094;12.112;2023-12-20T14:15:13;3.88;;;1.48;;
5585;SDS011;2815;54.094;12.112;2023-12-20T14:17:41;8.30;;;1.92;;
5585;SDS011;2815;54.094;12.112;2023-12-20T14:20:10;6.80;;;2.03;;
5585;SDS011;2815;54.094;12.112;2023-12-20T14:22:40;9.73;;;1.67;;
5585;SDS011;2815;54.094;12.112;2023-12-20T14:25:11;3.70;;;1.70;;
5585;SDS011;2815;54.094;12.112;2023-12-20T14:27:41;7.95;;;1.60;;
5585;SDS011;2815;54.094;12.112;2023-12-20T14:30:12;11.95;;;2.00;;
5585;SDS011;2815;54.094;12.112;2023-12-20T14:32:41;11.23;;;2.00;;
5585;SDS011;2815;54.094;12.112;2023-12-20T14:35:10;4.07;;;1.55;;
5585;SDS011;2815;54.094;12.112;2023-12-20T14:37:39;10.85;;;2.05;;
5585;SDS011;2815;54.094;12.112;2023-12-20T14:40:08;7.95;;;1.90;;
5585;SDS011;2815;54.094;12.112;2023-12-20T14:42:43;4.43;;;1.63;;
5585;SDS011;2815;54.094;12.112;2023-12-20T14:45:12;16.60;;;3.55;;
5585;SDS011;2815;54.094;12.112;2023-12-20T14:47:42;9.10;;;2.30;;
5585;SDS011;2815;54.094;12.112;2023-12-20T14:50:12;14.77;;;2.38;;
5585;SDS011;2815;54.094;12.112;2023-12-20T14:52:45;12.00;;;2.33;;
5585;SDS011;2815;54.094;12.112;2023-12-20T14:55:13;10.02;;;2.30;;
5585;SDS011;2815;54.094;12.112;2023-12-20T14:57:43;16.35;;;2.28;;
5585;SDS011;2815;54.094;12.112;2023-12-20T15:00:12;11.25;;;2.13;;
5585;SDS011;2815;54.094;12.112;2023-12-20T15:02:43;8.13;;;1.83;;
5585;SDS011;2815;54.094;12.112;2023-12-20T15:05:11;13.07;;;2.58;;
5585;SDS011;2815;54.094;12.112;2023-12-20T15:07:41;4.10;;;2.28;;
5585;SDS011;2815;54.094;12.112;2023-12-20T15:10:09;12.68;;;1.80;;
5585;SDS011;2815;54.094;12.112;2023-12-20T15:12:37;3.83;;;1.50;;